sensor_id;sensor_type;location;lat;lon;timestamp;pressure;altitude;pressure_sealevel;temperature;humidity
11710;BME280;5911;51.036;6.972;2023-02-03T00:00:16;101752.09;;;9.76;100.00
11710;BME280;5911;51.036;6.972;2023-02-03T00:02:47;101750.41;;;9.75;100.00
11710;BME280;5911;51.036;6.972;2023-02-03T00:05:15;101743.59;;;9.71;100.00
11710;BME280;5911;51.036;6.972;2023-02-03T00:07:43;101745.13;;;9.75;100.00
11710;BME280;5911;51.036;6.972;2023-02-03T00:10:12;101741.56;;;9.76;100.00
11710;BME280;5911;51.036;6.972;2023-02-03T00:12:40;101724.06;;;9.75;100.00
11710;BME280;5911;51.036;6.972;2023-02-03T00:15:08;101721.31;;;9.77;100.00
11710;BME280;5911;51.036;6.972;2023-02-03T00:17:36;101717.72;;;9.78;100.00
11710;BME280;5911;51.036;6.972;2023-02-03T00:20:05;101717.72;;;9.78;100.00
11710;BME280;5911;51.036;6.972;2023-02-03T00:22:33;101722.91;;;9.79;100.00
11710;BME280;5911;51.036;6.972;2023-02-03T00:25:00;101709.38;;;9.85;100.00
11710;BME280;5911;51.036;6.972;2023-02-03T00:27:30;101699.41;;;9.76;100.00
11710;BME280;5911;51.036;6.972;2023-02-03T00:29:58;101694.69;;;9.81;100.00
11710;BME280;5911;51.036;6.972;2023-02-03T00:32:27;101704.28;;;9.82;100.00
11710;BME280;5911;51.036;6.972;2023-02-03T00:34:55;101702.22;;;9.87;100.00
11710;BME280;5911;51.036;6.972;2023-02-03T00:37:23;101698.06;;;9.83;100.00
11710;BME280;5911;51.036;6.972;2023-02-03T00:39:51;101696.28;;;9.84;100.00
11710;BME280;5911;51.036;6.972;2023-02-03T00:42:19;101706.72;;;9.85;100.00
11710;BME280;5911;51.036;6.972;2023-02-03T00:44:48;101701.38;;;9.87;100.00
11710;BME280;5911;51.036;6.972;2023-02-03T00:47:16;101709.19;;;9.88;100.00
11710;BME280;5911;51.036;6.972;2023-02-03T00:49:43;101703.06;;;9.88;100.00
11710;BME280;5911;51.036;6.972;2023-02-03T00:52:11;101685.38;;;9.90;100.00
11710;BME280;5911;51.036;6.972;2023-02-03T00:54:41;101693.19;;;9.92;100.00
11710;BME280;5911;51.036;6.972;2023-02-03T00:57:09;101688.78;;;9.92;100.00
11710;BME280;5911;51.036;6.972;2023-02-03T00:59:38;101689.41;;;9.96;100.00
11710;BME280;5911;51.036;6.972;2023-02-03T01:02:07;101685.06;;;9.80;100.00
11710;BME280;5911;51.036;6.972;2023-02-03T01:04:35;101702.66;;;9.94;100.00
11710;BME280;5911;51.036;6.972;2023-02-03T01:07:03;101696.56;;;9.94;100.00
11710;BME280;5911;51.036;6.972;2023-02-03T01:09:32;101689.13;;;9.86;100.00
11710;BME280;5911;51.036;6.972;2023-02-03T01:12:00;101690.16;;;9.83;100.00
11710;BME280;5911;51.036;6.972;2023-02-03T01:14:28;101698.66;;;9.88;100.00
11710;BME280;5911;51.036;6.972;2023-02-03T01:16:56;101709.09;;;9.90;100.00
11710;BME280;5911;51.036;6.972;2023-02-03T01:19:26;101735.63;;;9.87;100.00
11710;BME280;5911;51.036;6.972;2023-02-03T01:21:53;101723.31;;;9.87;100.00
11710;BME280;5911;51.036;6.972;2023-02-03T01:24:21;101721.78;;;9.83;100.00
11710;BME280;5911;51.036;6.972;2023-02-03T01:26:49;101753.22;;;9.86;100.00
11710;BME280;5911;51.036;6.972;2023-02-03T01:29:17;101752.38;;;9.86;100.00
11710;BME280;5911;51.036;6.972;2023-02-03T01:31:47;101749.66;;;9.87;100.00
11710;BME280;5911;51.036;6.972;2023-02-03T01:34:16;101736.75;;;9.83;100.00
11710;BME280;5911;51.036;6.972;2023-02-03T01:36:47;101754.00;;;9.88;100.00
11710;BME280;5911;51.036;6.972;2023-02-03T01:39:15;101741.47;;;9.92;100.00
11710;BME280;5911;51.036;6.972;2023-02-03T01:41:44;101747.38;;;9.96;100.00
11710;BME280;5911;51.036;6.972;2023-02-03T01:44:35;101744.22;;;9.91;100.00
11710;BME280;5911;51.036;6.972;2023-02-03T01:47:12;101743.25;;;9.92;100.00
11710;BME280;5911;51.036;6.972;2023-02-03T01:49:44;101752.03;;;9.92;100.00
11710;BME280;5911;51.036;6.972;2023-02-03T01:52:15;101724.91;;;9.76;100.00
11710;BME280;5911;51.036;6.972;2023-02-03T01:54:44;101745.91;;;9.92;100.00
11710;BME280;5911;51.036;6.972;2023-02-03T01:57:21;101757.38;;;9.91;100.00
11710;BME280;5911;51.036;6.972;2023-02-03T02:00:03;101745.91;;;9.92;100.00
11710;BME280;5911;51.036;6.972;2023-02-03T02:02:39;101738.94;;;9.91;100.00
11710;BME280;5911;51.036;6.972;2023-02-03T02:05:13;101744.84;;;9.94;100.00
11710;BME280;5911;51.036;6.972;2023-02-03T02:07:46;101732.31;;;9.83;100.00
11710;BME280;5911;51.036;6.972;2023-02-03T02:10:15;101707.66;;;9.84;100.00
11710;BME280;5911;51.036;6.972;2023-02-03T02:12:43;101723.47;;;9.84;100.00
11710;BME280;5911;51.036;6.972;2023-02-03T02:15:12;101714.38;;;9.76;100.00
11710;BME280;5911;51.036;6.972;2023-02-03T02:17:53;101742.00;;;9.83;100.00
11710;BME280;5911;51.036;6.972;2023-02-03T02:23:44;101734.78;;;9.86;100.00
11710;BME280;5911;51.036;6.972;2023-02-03T02:26:36;101747.03;;;9.87;100.00
11710;BME280;5911;51.036;6.972;2023-02-03T02:29:32;101728.09;;;9.81;100.00
11710;BME280;5911;51.036;6.972;2023-02-03T02:32:18;101719.72;;;9.88;100.00
11710;BME280;5911;51.036;6.972;2023-02-03T02:34:57;101720.84;;;9.84;100.00
11710;BME280;5911;51.036;6.972;2023-02-03T02:37:36;101713.97;;;9.82;100.00
11710;BME280;5911;51.036;6.972;2023-02-03T02:40:10;101702.41;;;9.84;100.00
11710;BME280;5911;51.036;6.972;2023-02-03T02:42:53;101702.22;;;9.87;100.00
11710;BME280;5911;51.036;6.972;2023-02-03T02:45:28;101692.63;;;9.86;100.00
11710;BME280;5911;51.036;6.972;2023-02-03T02:48:04;101697.13;;;9.84;100.00
11710;BME280;5911;51.036;6.972;2023-02-03T02:50:39;101685.75;;;9.84;100.00
11710;BME280;5911;51.036;6.972;2023-02-03T02:53:09;101693.91;;;9.79;100.00
11710;BME280;5911;51.036;6.972;2023-02-03T02:55:40;101683.88;;;9.86;100.00
11710;BME280;5911;51.036;6.972;2023-02-03T02:58:11;101680.00;;;9.77;100.00
11710;BME280;5911;51.036;6.972;2023-02-03T03:00:43;101712.75;;;9.87;100.00
11710;BME280;5911;51.036;6.972;2023-02-03T03:03:14;101703.91;;;9.88;100.00
11710;BME280;5911;51.036;6.972;2023-02-03T03:05:46;101711.91;;;9.87;100.00
11710;BME280;5911;51.036;6.972;2023-02-03T03:08:21;101703.25;;;9.85;100.00
11710;BME280;5911;51.036;6.972;2023-02-03T03:10:51;101711.25;;;9.83;100.00
11710;BME280;5911;51.036;6.972;2023-02-03T03:13:24;101702.50;;;9.83;100.00
11710;BME280;5911;51.036;6.972;2023-02-03T03:15:54;101697.41;;;9.80;100.00
11710;BME280;5911;51.036;6.972;2023-02-03T03:18:28;101690.25;;;9.82;100.00
11710;BME280;5911;51.036;6.972;2023-02-03T03:20:59;101657.03;;;9.65;100.00
11710;BME280;5911;51.036;6.972;2023-02-03T03:23:33;101683.38;;;9.79;100.00
11710;BME280;5911;51.036;6.972;2023-02-03T03:26:09;101682.06;;;9.72;100.00
11710;BME280;5911;51.036;6.972;2023-02-03T03:28:42;101694.84;;;9.78;100.00
11710;BME280;5911;51.036;6.972;2023-02-03T03:31:14;101696.47;;;9.81;100.00
11710;BME280;5911;51.036;6.972;2023-02-03T03:33:44;101702.13;;;9.75;100.00
11710;BME280;5911;51.036;6.972;2023-02-03T03:36:18;101701.63;;;9.82;100.00
11710;BME280;5911;51.036;6.972;2023-02-03T03:38:54;101685.56;;;9.87;100.00
11710;BME280;5911;51.036;6.972;2023-02-03T03:41:31;101685.84;;;9.82;100.00
11710;BME280;5911;51.036;6.972;2023-02-03T03:44:04;101710.66;;;9.78;100.00
11710;BME280;5911;51.036;6.972;2023-02-03T03:46:40;101679.53;;;9.71;100.00
11710;BME280;5911;51.036;6.972;2023-02-03T03:49:12;101692.22;;;9.78;100.00
11710;BME280;5911;51.036;6.972;2023-02-03T03:51:43;101683.59;;;9.76;100.00
11710;BME280;5911;51.036;6.972;2023-02-03T03:54:15;101681.97;;;9.74;100.00
11710;BME280;5911;51.036;6.972;2023-02-03T03:56:49;101694.59;;;9.83;100.00
11710;BME280;5911;51.036;6.972;2023-02-03T03:59:21;101678.50;;;9.87;100.00
11710;BME280;5911;51.036;6.972;2023-02-03T04:01:50;101685.66;;;9.85;100.00
11710;BME280;5911;51.036;6.972;2023-02-03T04:04:22;101689.31;;;9.83;100.00
11710;BME280;5911;51.036;6.972;2023-02-03T04:06:52;101682.53;;;9.79;100.00
11710;BME280;5911;51.036;6.972;2023-02-03T04:09:21;101693.56;;;9.85;100.00
11710;BME280;5911;51.036;6.972;2023-02-03T04:11:48;101670.78;;;9.70;100.00
11710;BME280;5911;51.036;6.972;2023-02-03T04:14:28;101671.44;;;9.88;100.00
11710;BME280;5911;51.036;6.972;2023-02-03T04:16:57;101656.28;;;9.92;100.00
11710;BME280;5911;51.036;6.972;2023-02-03T04:19:27;101667.19;;;9.85;100.00
11710;BME280;5911;51.036;6.972;2023-02-03T04:21:54;101672.66;;;9.82;100.00
11710;BME280;5911;51.036;6.972;2023-02-03T04:24:22;101676.06;;;9.84;100.00
11710;BME280;5911;51.036;6.972;2023-02-03T04:26:50;101683.19;;;9.82;100.00
11710;BME280;5911;51.036;6.972;2023-02-03T04:29:18;101694.41;;;9.86;100.00
11710;BME280;5911;51.036;6.972;2023-02-03T04:31:46;101681.91;;;9.90;100.00
11710;BME280;5911;51.036;6.972;2023-02-03T04:34:14;101687.78;;;9.93;100.00
11710;BME280;5911;51.036;6.972;2023-02-03T04:36:43;101678.31;;;9.91;100.00
11710;BME280;5911;51.036;6.972;2023-02-03T04:39:11;101681.13;;;9.87;100.00
11710;BME280;5911;51.036;6.972;2023-02-03T04:41:38;101688.28;;;9.85;100.00
11710;BME280;5911;51.036;6.972;2023-02-03T04:44:07;101679.16;;;9.91;100.00
11710;BME280;5911;51.036;6.972;2023-02-03T04:46:34;101691.69;;;9.87;100.00
11710;BME280;5911;51.036;6.972;2023-02-03T04:49:02;101701.19;;;9.90;100.00
11710;BME280;5911;51.036;6.972;2023-02-03T04:51:30;101691.28;;;9.94;100.00
11710;BME280;5911;51.036;6.972;2023-02-03T04:53:59;101690.25;;;9.96;100.00
11710;BME280;5911;51.036;6.972;2023-02-03T04:56:27;101668.31;;;9.96;100.00
11710;BME280;5911;51.036;6.972;2023-02-03T04:58:55;101667.69;;;9.92;100.00
11710;BME280;5911;51.036;6.972;2023-02-03T05:01:22;101666.44;;;9.98;100.00
11710;BME280;5911;51.036;6.972;2023-02-03T05:03:50;101682.44;;;9.95;100.00
11710;BME280;5911;51.036;6.972;2023-02-03T05:06:21;101665.41;;;10.00;100.00
11710;BME280;5911;51.036;6.972;2023-02-03T05:08:50;101660.22;;;9.99;100.00
11710;BME280;5911;51.036;6.972;2023-02-03T05:11:19;101668.53;;;9.93;100.00
11710;BME280;5911;51.036;6.972;2023-02-03T05:13:47;101663.25;;;9.93;100.00
11710;BME280;5911;51.036;6.972;2023-02-03T05:16:18;101657.16;;;9.92;100.00
11710;BME280;5911;51.036;6.972;2023-02-03T05:18:46;101646.47;;;9.94;100.00
11710;BME280;5911;51.036;6.972;2023-02-03T05:21:14;101642.63;;;9.99;100.00
11710;BME280;5911;51.036;6.972;2023-02-03T05:23:42;101647.91;;;9.99;100.00
11710;BME280;5911;51.036;6.972;2023-02-03T05:26:10;101642.81;;;9.96;100.00
11710;BME280;5911;51.036;6.972;2023-02-03T05:28:39;101632.44;;;9.93;100.00
11710;BME280;5911;51.036;6.972;2023-02-03T05:31:07;101643.66;;;9.97;100.00
11710;BME280;5911;51.036;6.972;2023-02-03T05:33:35;101641.97;;;9.96;100.00
11710;BME280;5911;51.036;6.972;2023-02-03T05:36:03;101646.88;;;10.02;100.00
11710;BME280;5911;51.036;6.972;2023-02-03T05:38:31;101661.16;;;9.98;100.00
11710;BME280;5911;51.036;6.972;2023-02-03T05:40:59;101650.53;;;9.99;100.00
11710;BME280;5911;51.036;6.972;2023-02-03T05:43:45;101649.13;;;9.94;100.00
11710;BME280;5911;51.036;6.972;2023-02-03T05:46:13;101658.44;;;9.99;100.00
11710;BME280;5911;51.036;6.972;2023-02-03T05:48:41;101659.09;;;10.03;100.00
11710;BME280;5911;51.036;6.972;2023-02-03T05:51:08;101647.31;;;10.08;100.00
11710;BME280;5911;51.036;6.972;2023-02-03T05:53:36;101659.75;;;10.06;100.00
11710;BME280;5911;51.036;6.972;2023-02-03T05:56:05;101657.03;;;10.08;100.00
11710;BME280;5911;51.036;6.972;2023-02-03T05:58:32;101659.09;;;10.03;100.00
11710;BME280;5911;51.036;6.972;2023-02-03T06:01:02;101700.88;;;10.09;100.00
11710;BME280;5911;51.036;6.972;2023-02-03T06:03:29;101665.31;;;10.02;100.00
11710;BME280;5911;51.036;6.972;2023-02-03T06:05:57;101670.59;;;10.02;100.00
11710;BME280;5911;51.036;6.972;2023-02-03T06:08:25;101659.94;;;10.03;100.00
11710;BME280;5911;51.036;6.972;2023-02-03T06:10:56;101682.44;;;10.09;100.00
11710;BME280;5911;51.036;6.972;2023-02-03T06:13:25;101672.63;;;10.11;100.00
11710;BME280;5911;51.036;6.972;2023-02-03T06:15:53;101671.34;;;10.04;100.00
11710;BME280;5911;51.036;6.972;2023-02-03T06:18:23;101687.34;;;10.01;100.00
11710;BME280;5911;51.036;6.972;2023-02-03T06:20:51;101696.44;;;10.09;100.00
11710;BME280;5911;51.036;6.972;2023-02-03T06:23:18;101700.25;;;10.05;100.00
11710;BME280;5911;51.036;6.972;2023-02-03T06:25:47;101654.00;;;10.00;100.00
11710;BME280;5911;51.036;6.972;2023-02-03T06:28:15;101686.03;;;10.08;100.00
11710;BME280;5911;51.036;6.972;2023-02-03T06:30:43;101676.44;;;10.07;100.00
11710;BME280;5911;51.036;6.972;2023-02-03T06:33:11;101683.28;;;10.09;100.00
11710;BME280;5911;51.036;6.972;2023-02-03T06:35:40;101658.69;;;10.09;100.00
11710;BME280;5911;51.036;6.972;2023-02-03T06:38:08;101675.50;;;10.08;100.00
11710;BME280;5911;51.036;6.972;2023-02-03T06:40:36;101676.63;;;10.04;100.00
11710;BME280;5911;51.036;6.972;2023-02-03T06:43:03;101683.41;;;10.08;100.00
11710;BME280;5911;51.036;6.972;2023-02-03T06:45:31;101684.03;;;10.11;100.00
11710;BME280;5911;51.036;6.972;2023-02-03T06:48:00;101676.97;;;10.12;100.00
11710;BME280;5911;51.036;6.972;2023-02-03T06:50:27;101678.41;;;10.03;100.00
11710;BME280;5911;51.036;6.972;2023-02-03T06:52:57;101689.03;;;10.02;100.00
11710;BME280;5911;51.036;6.972;2023-02-03T06:55:25;101677.16;;;10.09;100.00
11710;BME280;5911;51.036;6.972;2023-02-03T06:57:53;101689.13;;;10.14;100.00
11710;BME280;5911;51.036;6.972;2023-02-03T07:00:21;101676.78;;;10.15;100.00
11710;BME280;5911;51.036;6.972;2023-02-03T07:02:52;101668.03;;;10.14;100.00
11710;BME280;5911;51.036;6.972;2023-02-03T07:05:21;101667.94;;;10.02;100.00
11710;BME280;5911;51.036;6.972;2023-02-03T07:07:49;101681.88;;;10.04;100.00
11710;BME280;5911;51.036;6.972;2023-02-03T07:10:19;101696.56;;;10.08;100.00
11710;BME280;5911;51.036;6.972;2023-02-03T07:12:47;101681.31;;;10.13;100.00
11710;BME280;5911;51.036;6.972;2023-02-03T07:15:16;101675.19;;;10.12;100.00
11710;BME280;5911;51.036;6.972;2023-02-03T07:17:46;101671.59;;;10.13;100.00
11710;BME280;5911;51.036;6.972;2023-02-03T07:20:20;101668.22;;;10.11;100.00
11710;BME280;5911;51.036;6.972;2023-02-03T07:22:52;101670.66;;;10.14;100.00
11710;BME280;5911;51.036;6.972;2023-02-03T07:25:23;101678.13;;;10.22;100.00
11710;BME280;5911;51.036;6.972;2023-02-03T07:27:51;101685.06;;;10.09;100.00
11710;BME280;5911;51.036;6.972;2023-02-03T07:30:19;101688.03;;;10.18;100.00
11710;BME280;5911;51.036;6.972;2023-02-03T07:32:47;101699.00;;;10.11;100.00
11710;BME280;5911;51.036;6.972;2023-02-03T07:35:16;101685.63;;;10.14;100.00
11710;BME280;5911;51.036;6.972;2023-02-03T07:37:44;101677.38;;;10.20;100.00
11710;BME280;5911;51.036;6.972;2023-02-03T07:40:13;101709.03;;;10.20;100.00
11710;BME280;5911;51.036;6.972;2023-02-03T07:42:42;101675.69;;;10.19;100.00
11710;BME280;5911;51.036;6.972;2023-02-03T07:45:11;101683.28;;;10.09;100.00
11710;BME280;5911;51.036;6.972;2023-02-03T07:47:39;101703.91;;;10.17;100.00
11710;BME280;5911;51.036;6.972;2023-02-03T07:50:08;101710.13;;;10.16;100.00
11710;BME280;5911;51.036;6.972;2023-02-03T07:52:36;101702.38;;;10.13;100.00
11710;BME280;5911;51.036;6.972;2023-02-03T07:55:04;101699.75;;;10.13;100.00
11710;BME280;5911;51.036;6.972;2023-02-03T07:57:32;101678.13;;;10.08;100.00
11710;BME280;5911;51.036;6.972;2023-02-03T08:00:02;101682.66;;;10.20;100.00
11710;BME280;5911;51.036;6.972;2023-02-03T08:02:37;101700.31;;;10.18;100.00
11710;BME280;5911;51.036;6.972;2023-02-03T08:05:06;101689.88;;;10.16;100.00
11710;BME280;5911;51.036;6.972;2023-02-03T08:07:34;101709.16;;;10.17;100.00
11710;BME280;5911;51.036;6.972;2023-02-03T08:10:02;101705.53;;;10.19;100.00
11710;BME280;5911;51.036;6.972;2023-02-03T08:12:30;101715.16;;;10.20;100.00
11710;BME280;5911;51.036;6.972;2023-02-03T08:14:57;101704.69;;;10.19;100.00
11710;BME280;5911;51.036;6.972;2023-02-03T08:17:27;101692.25;;;10.21;100.00
11710;BME280;5911;51.036;6.972;2023-02-03T08:19:54;101698.63;;;10.17;100.00
11710;BME280;5911;51.036;6.972;2023-02-03T08:22:23;101701.19;;;10.18;100.00
11710;BME280;5911;51.036;6.972;2023-02-03T08:24:51;101715.78;;;10.24;100.00
11710;BME280;5911;51.036;6.972;2023-02-03T08:27:20;101727.63;;;10.17;100.00
11710;BME280;5911;51.036;6.972;2023-02-03T08:29:49;101711.25;;;10.12;100.00
11710;BME280;5911;51.036;6.972;2023-02-03T08:32:18;101728.41;;;10.19;100.00
11710;BME280;5911;51.036;6.972;2023-02-03T08:34:48;101719.56;;;10.20;100.00
11710;BME280;5911;51.036;6.972;2023-02-03T08:37:18;101739.13;;;10.16;100.00
11710;BME280;5911;51.036;6.972;2023-02-03T08:39:46;101741.09;;;10.12;100.00
11710;BME280;5911;51.036;6.972;2023-02-03T08:42:15;101734.22;;;10.10;100.00
11710;BME280;5911;51.036;6.972;2023-02-03T08:44:43;101737.22;;;10.18;100.00
11710;BME280;5911;51.036;6.972;2023-02-03T08:47:11;101735.72;;;10.14;100.00
11710;BME280;5911;51.036;6.972;2023-02-03T08:49:39;101720.31;;;10.08;100.00
11710;BME280;5911;51.036;6.972;2023-02-03T08:52:10;101736.47;;;10.16;100.00
11710;BME280;5911;51.036;6.972;2023-02-03T08:54:39;101729.59;;;10.13;100.00
11710;BME280;5911;51.036;6.972;2023-02-03T08:57:07;101733.19;;;10.12;100.00
11710;BME280;5911;51.036;6.972;2023-02-03T08:59:37;101728.09;;;10.09;100.00
11710;BME280;5911;51.036;6.972;2023-02-03T09:02:07;101718.22;;;10.13;100.00
11710;BME280;5911;51.036;6.972;2023-02-03T09:04:36;101730.13;;;10.20;100.00
11710;BME280;5911;51.036;6.972;2023-02-03T09:07:04;101736.66;;;10.13;100.00
11710;BME280;5911;51.036;6.972;2023-02-03T09:09:33;101766.31;;;10.16;100.00
11710;BME280;5911;51.036;6.972;2023-02-03T09:12:00;101749.09;;;10.11;100.00
11710;BME280;5911;51.036;6.972;2023-02-03T09:14:31;101729.59;;;10.13;100.00
11710;BME280;5911;51.036;6.972;2023-02-03T09:17:00;101747.13;;;10.14;100.00
11710;BME280;5911;51.036;6.972;2023-02-03T09:19:29;101742.44;;;10.19;100.00
11710;BME280;5911;51.036;6.972;2023-02-03T09:21:57;101741.00;;;10.14;100.00
11710;BME280;5911;51.036;6.972;2023-02-03T09:24:24;101749.00;;;10.12;100.00
11710;BME280;5911;51.036;6.972;2023-02-03T09:26:54;101740.75;;;10.18;100.00
11710;BME280;5911;51.036;6.972;2023-02-03T09:29:22;101749.66;;;10.16;100.00
11710;BME280;5911;51.036;6.972;2023-02-03T09:31:50;101758.88;;;10.09;100.00
11710;BME280;5911;51.036;6.972;2023-02-03T09:34:19;101753.59;;;10.09;100.00
11710;BME280;5911;51.036;6.972;2023-02-03T09:36:47;101769.31;;;10.10;100.00
11710;BME280;5911;51.036;6.972;2023-02-03T09:39:15;101739.47;;;10.10;100.00
11710;BME280;5911;51.036;6.972;2023-02-03T09:42:09;101781.13;;;10.05;100.00
11710;BME280;5911;51.036;6.972;2023-02-03T09:44:47;101752.28;;;10.02;100.00
11710;BME280;5911;51.036;6.972;2023-02-03T09:47:21;101733.56;;;10.06;100.00
11710;BME280;5911;51.036;6.972;2023-02-03T09:49:51;101730.00;;;10.07;100.00
11710;BME280;5911;51.036;6.972;2023-02-03T09:52:22;101701.81;;;9.94;100.00
11710;BME280;5911;51.036;6.972;2023-02-03T09:54:55;101745.59;;;10.10;100.00
11710;BME280;5911;51.036;6.972;2023-02-03T09:57:29;101727.38;;;10.07;100.00
11710;BME280;5911;51.036;6.972;2023-02-03T09:59:59;101731.28;;;10.14;100.00
11710;BME280;5911;51.036;6.972;2023-02-03T10:02:44;101737.59;;;10.12;100.00
11710;BME280;5911;51.036;6.972;2023-02-03T10:05:21;101765.47;;;10.02;100.00
11710;BME280;5911;51.036;6.972;2023-02-03T10:08:01;101743.63;;;10.00;100.00
11710;BME280;5911;51.036;6.972;2023-02-03T10:10:37;101755.38;;;9.94;100.00
11710;BME280;5911;51.036;6.972;2023-02-03T10:13:21;101754.19;;;10.00;100.00
11710;BME280;5911;51.036;6.972;2023-02-03T10:16:18;101752.47;;;9.99;100.00
11710;BME280;5911;51.036;6.972;2023-02-03T10:18:50;101765.38;;;10.03;100.00
11710;BME280;5911;51.036;6.972;2023-02-03T10:21:33;101771.09;;;9.96;100.00
11710;BME280;5911;51.036;6.972;2023-02-03T10:24:03;101756.31;;;9.93;100.00
11710;BME280;5911;51.036;6.972;2023-02-03T10:26:33;101761.72;;;9.92;100.00
11710;BME280;5911;51.036;6.972;2023-02-03T10:29:07;101748.31;;;9.80;100.00
11710;BME280;5911;51.036;6.972;2023-02-03T10:31:40;101750.50;;;9.88;100.00
11710;BME280;5911;51.036;6.972;2023-02-03T10:34:11;101769.50;;;9.93;100.00
11710;BME280;5911;51.036;6.972;2023-02-03T10:36:52;101754.53;;;9.94;100.00
11710;BME280;5911;51.036;6.972;2023-02-03T10:39:26;101746.00;;;9.90;100.00
11710;BME280;5911;51.036;6.972;2023-02-03T10:41:55;101759.34;;;9.87;100.00
11710;BME280;5911;51.036;6.972;2023-02-03T10:44:30;101753.06;;;9.90;100.00
11710;BME280;5911;51.036;6.972;2023-02-03T10:47:00;101749.84;;;9.84;100.00
11710;BME280;5911;51.036;6.972;2023-02-03T10:49:28;101754.94;;;9.87;100.00
11710;BME280;5911;51.036;6.972;2023-02-03T10:51:59;101744.22;;;9.91;100.00
11710;BME280;5911;51.036;6.972;2023-02-03T10:54:31;101743.44;;;9.88;100.00
11710;BME280;5911;51.036;6.972;2023-02-03T10:57:04;101735.72;;;9.85;100.00
11710;BME280;5911;51.036;6.972;2023-02-03T10:59:40;101761.91;;;9.88;100.00
11710;BME280;5911;51.036;6.972;2023-02-03T11:02:18;101748.81;;;9.87;100.00
11710;BME280;5911;51.036;6.972;2023-02-03T11:05:07;101753.81;;;9.92;100.00
11710;BME280;5911;51.036;6.972;2023-02-03T11:07:35;101764.53;;;9.88;100.00
11710;BME280;5911;51.036;6.972;2023-02-03T11:10:27;101742.88;;;9.83;100.00
11710;BME280;5911;51.036;6.972;2023-02-03T11:13:15;101748.72;;;9.88;100.00
11710;BME280;5911;51.036;6.972;2023-02-03T11:15:56;101736.09;;;9.94;100.00
11710;BME280;5911;51.036;6.972;2023-02-03T11:18:38;101724.44;;;9.98;100.00
11710;BME280;5911;51.036;6.972;2023-02-03T11:21:08;101742.31;;;9.93;100.00
11710;BME280;5911;51.036;6.972;2023-02-03T11:23:46;101716.53;;;9.98;100.00
11710;BME280;5911;51.036;6.972;2023-02-03T11:26:18;101723.88;;;10.07;100.00
11710;BME280;5911;51.036;6.972;2023-02-03T11:28:49;101703.44;;;9.82;100.00
11710;BME280;5911;51.036;6.972;2023-02-03T11:31:23;101734.03;;;9.99;100.00
11710;BME280;5911;51.036;6.972;2023-02-03T11:33:57;101740.06;;;10.01;100.00
11710;BME280;5911;51.036;6.972;2023-02-03T11:36:28;101733.34;;;10.09;100.00
11710;BME280;5911;51.036;6.972;2023-02-03T11:39:13;101732.50;;;10.09;100.00
11710;BME280;5911;51.036;6.972;2023-02-03T11:41:43;101731.03;;;10.05;100.00
11710;BME280;5911;51.036;6.972;2023-02-03T11:44:18;101753.25;;;10.15;100.00
11710;BME280;5911;51.036;6.972;2023-02-03T11:46:49;101768.47;;;10.10;100.00
11710;BME280;5911;51.036;6.972;2023-02-03T11:49:43;101755.28;;;10.10;100.00
11710;BME280;5911;51.036;6.972;2023-02-03T11:52:40;101770.09;;;10.12;100.00
11710;BME280;5911;51.036;6.972;2023-02-03T11:55:18;101750.28;;;10.21;100.00
11710;BME280;5911;51.036;6.972;2023-02-03T11:57:55;101751.03;;;10.23;100.00
11710;BME280;5911;51.036;6.972;2023-02-03T12:00:36;101747.31;;;10.26;100.00
11710;BME280;5911;51.036;6.972;2023-02-03T12:03:17;101735.56;;;10.31;100.00
11710;BME280;5911;51.036;6.972;2023-02-03T12:06:13;101737.31;;;10.16;100.00
11710;BME280;5911;51.036;6.972;2023-02-03T12:09:02;101751.84;;;10.23;100.00
11710;BME280;5911;51.036;6.972;2023-02-03T12:11:52;101741.28;;;10.23;100.00
11710;BME280;5911;51.036;6.972;2023-02-03T12:14:36;101742.72;;;10.29;100.00
11710;BME280;5911;51.036;6.972;2023-02-03T12:17:43;101741.69;;;10.32;100.00
11710;BME280;5911;51.036;6.972;2023-02-03T12:20:30;101741.09;;;10.27;100.00
11710;BME280;5911;51.036;6.972;2023-02-03T12:23:12;101740.25;;;10.26;100.00
11710;BME280;5911;51.036;6.972;2023-02-03T12:25:51;101742.44;;;10.19;100.00
11710;BME280;5911;51.036;6.972;2023-02-03T12:28:38;101739.72;;;10.35;100.00
11710;BME280;5911;51.036;6.972;2023-02-03T12:31:12;101736.31;;;10.33;100.00
11710;BME280;5911;51.036;6.972;2023-02-03T12:33:48;101730.84;;;10.36;100.00
11710;BME280;5911;51.036;6.972;2023-02-03T12:36:24;101732.44;;;10.39;100.00
11710;BME280;5911;51.036;6.972;2023-02-03T12:39:00;101739.31;;;10.41;100.00
11710;BME280;5911;51.036;6.972;2023-02-03T12:41:32;101748.72;;;10.45;100.00
11710;BME280;5911;51.036;6.972;2023-02-03T12:44:06;101762.09;;;10.42;100.00
11710;BME280;5911;51.036;6.972;2023-02-03T12:46:39;101728.69;;;10.29;100.00
11710;BME280;5911;51.036;6.972;2023-02-03T12:49:15;101754.84;;;10.46;100.00
11710;BME280;5911;51.036;6.972;2023-02-03T12:51:56;101725.56;;;10.36;100.00
11710;BME280;5911;51.036;6.972;2023-02-03T12:54:34;101734.78;;;10.43;100.00
11710;BME280;5911;51.036;6.972;2023-02-03T12:57:15;101741.75;;;10.44;100.00
11710;BME280;5911;51.036;6.972;2023-02-03T12:59:52;101732.31;;;10.40;100.00
11710;BME280;5911;51.036;6.972;2023-02-03T13:02:26;101731.47;;;10.40;100.00
11710;BME280;5911;51.036;6.972;2023-02-03T13:04:59;101727.28;;;10.37;100.00
11710;BME280;5911;51.036;6.972;2023-02-03T13:07:37;101730.44;;;10.42;100.00
11710;BME280;5911;51.036;6.972;2023-02-03T13:10:15;101742.69;;;10.43;100.00
11710;BME280;5911;51.036;6.972;2023-02-03T13:12:49;101729.16;;;10.35;100.00
11710;BME280;5911;51.036;6.972;2023-02-03T13:15:24;101738.84;;;10.35;100.00
11710;BME280;5911;51.036;6.972;2023-02-03T13:17:55;101738.53;;;10.39;100.00
11710;BME280;5911;51.036;6.972;2023-02-03T13:20:26;101730.84;;;10.36;100.00
11710;BME280;5911;51.036;6.972;2023-02-03T13:23:09;101727.28;;;10.37;100.00